createdAt,value
2016-10-13T00:00:04.621Z,956.62
2016-10-13T00:01:04.611Z,956.61
2016-10-13T00:02:04.600Z,956.63
2016-10-13T00:03:04.588Z,956.58
2016-10-13T00:04:04.573Z,956.62
2016-10-13T00:05:04.560Z,956.58
2016-10-13T00:06:04.544Z,956.62
2016-10-13T00:07:04.533Z,956.63
2016-10-13T00:08:04.526Z,956.62
2016-10-13T00:09:04.508Z,956.66
2016-10-13T00:10:04.512Z,956.66
2016-10-13T00:11:04.499Z,956.65
2016-10-13T00:12:04.672Z,956.62
2016-10-13T00:13:04.454Z,956.64
2016-10-13T00:14:04.449Z,956.64
2016-10-13T00:15:04.434Z,956.63
2016-10-13T00:16:04.419Z,956.67
2016-10-13T00:17:04.411Z,956.67
2016-10-13T00:18:04.391Z,956.67
2016-10-13T00:19:04.428Z,956.6
2016-10-13T00:20:04.364Z,956.67
2016-10-13T00:21:04.356Z,956.62
2016-10-13T00:22:04.339Z,956.61
2016-10-13T00:23:04.325Z,956.61
2016-10-13T00:24:04.315Z,956.65
2016-10-13T00:25:04.301Z,956.64
2016-10-13T00:26:04.287Z,956.63
2016-10-13T00:27:04.275Z,956.58
2016-10-13T00:28:04.262Z,956.65
2016-10-13T00:29:04.254Z,956.6
2016-10-13T00:30:04.238Z,956.64
2016-10-13T00:31:04.225Z,956.59
2016-10-13T00:32:04.217Z,956.62
2016-10-13T00:33:04.198Z,956.61
2016-10-13T00:34:04.187Z,956.63
2016-10-13T00:35:04.177Z,956.62
2016-10-13T00:36:04.161Z,956.61
2016-10-13T00:37:04.148Z,956.6
2016-10-13T00:38:04.140Z,956.58
2016-10-13T00:39:04.126Z,956.6
2016-10-13T00:40:04.111Z,956.61
2016-10-13T00:41:04.097Z,956.59
2016-10-13T00:42:04.088Z,956.6
2016-10-13T00:43:04.075Z,956.54
2016-10-13T00:44:04.057Z,956.63
2016-10-13T00:45:04.050Z,956.57
2016-10-13T00:46:04.032Z,956.55
2016-10-13T00:47:04.018Z,956.57
2016-10-13T00:48:04.013Z,956.54
2016-10-13T00:49:03.993Z,956.56
2016-10-13T00:50:03.987Z,956.55
2016-10-13T00:51:03.970Z,956.57
2016-10-13T00:52:03.953Z,956.51
2016-10-13T00:53:03.953Z,956.53
2016-10-13T00:54:03.929Z,956.48
2016-10-13T00:55:03.915Z,956.5
2016-10-13T00:56:03.903Z,956.49
2016-10-13T00:57:03.890Z,956.45
2016-10-13T00:58:03.878Z,956.52
2016-10-13T00:59:03.864Z,956.5
2016-10-13T01:00:03.855Z,956.49
2016-10-13T01:01:03.839Z,956.48
2016-10-13T01:02:03.827Z,956.51
2016-10-13T01:03:03.813Z,956.5
2016-10-13T01:04:03.804Z,956.49
2016-10-13T01:05:03.794Z,956.47
2016-10-13T01:06:03.777Z,956.46
2016-10-13T01:07:03.767Z,956.48
2016-10-13T01:08:03.750Z,956.46
2016-10-13T01:09:03.741Z,956.44
2016-10-13T01:10:03.727Z,956.53
2016-10-13T01:11:03.711Z,956.53
2016-10-13T01:12:03.698Z,956.49
2016-10-13T01:13:03.687Z,956.47
2016-10-13T01:14:03.679Z,956.46
2016-10-13T01:15:03.661Z,956.49
2016-10-13T01:16:03.649Z,956.45
2016-10-13T01:17:03.637Z,956.46
2016-10-13T01:18:03.622Z,956.46
2016-10-13T01:19:03.614Z,956.46
2016-10-13T01:20:03.599Z,956.47
2016-10-13T01:21:03.606Z,956.46
2016-10-13T01:22:03.573Z,956.45
2016-10-13T01:23:03.560Z,956.46
2016-10-13T01:24:03.548Z,956.49
2016-10-13T01:25:03.535Z,956.47
2016-10-13T01:26:03.522Z,956.48
2016-10-13T01:27:03.515Z,956.48
2016-10-13T01:28:03.496Z,956.48
2016-10-13T01:29:03.485Z,956.46
2016-10-13T01:30:03.473Z,956.47
2016-10-13T01:31:03.464Z,956.48
2016-10-13T01:32:03.446Z,956.49
2016-10-13T01:33:03.434Z,956.48
2016-10-13T01:34:03.422Z,956.44
2016-10-13T01:35:03.409Z,956.45
2016-10-13T01:36:03.404Z,956.47
2016-10-13T01:37:03.383Z,956.45
2016-10-13T01:38:03.371Z,956.45
2016-10-13T01:39:03.358Z,956.46
2016-10-13T01:40:03.403Z,956.48
2016-10-13T01:41:03.358Z,956.45
2016-10-13T01:42:03.340Z,956.48
2016-10-13T01:43:03.305Z,956.46
2016-10-13T01:44:03.295Z,956.45
2016-10-13T01:45:03.283Z,956.42
2016-10-13T01:46:03.271Z,956.46
2016-10-13T01:47:03.256Z,956.45
2016-10-13T01:48:03.243Z,956.44
2016-10-13T01:49:03.232Z,956.47
2016-10-13T01:50:03.222Z,956.45
2016-10-13T01:51:03.219Z,956.42
2016-10-13T01:52:03.194Z,956.4
2016-10-13T01:53:03.184Z,956.41
2016-10-13T01:54:03.169Z,956.38
2016-10-13T01:55:03.157Z,956.38
2016-10-13T01:56:03.144Z,956.42
2016-10-13T01:57:03.134Z,956.4
2016-10-13T01:58:03.116Z,956.47
2016-10-13T01:59:03.104Z,956.42
2016-10-13T02:00:03.092Z,956.42
2016-10-13T02:01:03.082Z,956.42
2016-10-13T02:02:03.069Z,956.45
2016-10-13T02:03:03.053Z,956.46
2016-10-13T02:04:03.042Z,956.42
2016-10-13T02:05:03.029Z,956.41
2016-10-13T02:06:03.015Z,956.4
2016-10-13T02:07:03.009Z,956.4
2016-10-13T02:08:02.989Z,956.42
2016-10-13T02:09:02.978Z,956.4
2016-10-13T02:10:02.967Z,956.43
2016-10-13T02:11:02.953Z,956.39
2016-10-13T02:12:02.942Z,956.41
2016-10-13T02:13:02.929Z,956.4
2016-10-13T02:14:02.914Z,956.38
2016-10-13T02:15:02.904Z,956.38
2016-10-13T02:16:02.889Z,956.38
2016-10-13T02:17:02.876Z,956.37
2016-10-13T02:18:02.867Z,956.31
2016-10-13T02:19:02.852Z,956.36
2016-10-13T02:20:02.840Z,956.35
2016-10-13T02:21:02.829Z,956.37
2016-10-13T02:22:02.816Z,956.36
2016-10-13T02:23:02.800Z,956.32
2016-10-13T02:24:02.789Z,956.32
2016-10-13T02:25:02.774Z,956.35
2016-10-13T02:26:02.763Z,956.32
2016-10-13T02:27:02.759Z,956.32
2016-10-13T02:28:02.738Z,956.33
2016-10-13T02:29:02.729Z,956.34
2016-10-13T02:30:02.712Z,956.32
2016-10-13T02:31:02.701Z,956.29
2016-10-13T02:32:02.687Z,956.33
2016-10-13T02:33:02.691Z,956.33
2016-10-13T02:34:02.661Z,956.29
2016-10-13T02:35:02.650Z,956.29
2016-10-13T02:36:02.641Z,956.25
2016-10-13T02:37:02.626Z,956.28
2016-10-13T02:38:02.619Z,956.27
2016-10-13T02:39:02.600Z,956.22
2016-10-13T02:40:02.588Z,956.26
2016-10-13T02:41:02.575Z,956.19
2016-10-13T02:42:02.560Z,956.23
2016-10-13T02:43:02.552Z,956.18
2016-10-13T02:44:02.536Z,956.23
2016-10-13T02:45:02.521Z,956.25
2016-10-13T02:46:02.509Z,956.25
2016-10-13T02:47:02.496Z,956.22
2016-10-13T02:48:02.485Z,956.21
2016-10-13T02:49:02.473Z,956.21
2016-10-13T02:50:02.461Z,956.2
2016-10-13T02:51:02.447Z,956.26
2016-10-13T02:52:02.441Z,956.25
2016-10-13T02:53:02.420Z,956.25
2016-10-13T02:54:02.413Z,956.26
2016-10-13T02:55:02.397Z,956.28
2016-10-13T02:56:02.387Z,956.23
2016-10-13T02:57:02.375Z,956.23
2016-10-13T02:58:02.358Z,956.23
2016-10-13T02:59:02.354Z,956.21
2016-10-13T03:00:02.331Z,956.14
2016-10-13T03:01:02.321Z,956.19
2016-10-13T03:02:02.309Z,956.14
2016-10-13T03:03:02.297Z,956.13
2016-10-13T03:04:02.291Z,956.19
2016-10-13T03:05:02.272Z,956.15
2016-10-13T03:06:02.257Z,956.19
2016-10-13T03:07:02.244Z,956.16
2016-10-13T03:08:02.231Z,956.19
2016-10-13T03:09:02.225Z,956.19
2016-10-13T03:10:02.206Z,956.2
2016-10-13T03:11:02.195Z,956.2
2016-10-13T03:12:02.184Z,956.22
2016-10-13T03:13:02.170Z,956.16
2016-10-13T03:14:02.159Z,956.22
2016-10-13T03:15:02.144Z,956.2
2016-10-13T03:16:02.132Z,956.19
2016-10-13T03:17:02.119Z,956.23
2016-10-13T03:18:02.113Z,956.19
2016-10-13T03:19:02.095Z,956.2
2016-10-13T03:20:02.092Z,956.23
2016-10-13T03:21:02.070Z,956.2
2016-10-13T03:22:02.061Z,956.2
2016-10-13T03:23:02.045Z,956.25
2016-10-13T03:24:02.032Z,956.23
2016-10-13T03:25:02.023Z,956.22
2016-10-13T03:26:02.011Z,956.25
2016-10-13T03:27:01.992Z,956.23
2016-10-13T03:28:01.983Z,956.24
2016-10-13T03:29:01.967Z,956.21
2016-10-13T03:30:01.961Z,956.23
2016-10-13T03:31:01.943Z,956.24
2016-10-13T03:32:01.930Z,956.25
2016-10-13T03:33:01.923Z,956.22
2016-10-13T03:34:01.907Z,956.22
2016-10-13T03:35:01.897Z,956.23
2016-10-13T03:36:01.880Z,956.23
2016-10-13T03:37:01.870Z,956.24
2016-10-13T03:38:01.854Z,956.25
2016-10-13T03:39:01.855Z,956.24
2016-10-13T03:40:01.834Z,956.2
2016-10-13T03:41:01.822Z,956.2
2016-10-13T03:42:01.806Z,956.2
2016-10-13T03:43:01.794Z,956.2
2016-10-13T03:44:01.783Z,956.19
2016-10-13T03:45:01.768Z,956.2
2016-10-13T03:46:01.765Z,956.13
2016-10-13T03:47:01.745Z,956.16
2016-10-13T03:48:01.733Z,956.2
2016-10-13T03:49:01.725Z,956.14
2016-10-13T03:50:01.704Z,956.12
2016-10-13T03:51:01.696Z,956.08
2016-10-13T03:52:01.680Z,956.09
2016-10-13T03:53:01.668Z,956.1
2016-10-13T03:54:01.656Z,956.08
2016-10-13T03:55:01.644Z,956.07
2016-10-13T03:56:01.637Z,956.03
2016-10-13T03:57:01.623Z,956.04
2016-10-13T03:58:01.606Z,955.99
2016-10-13T03:59:01.593Z,956.01
2016-10-13T04:00:01.581Z,955.97
2016-10-13T04:01:01.569Z,956.01
2016-10-13T04:02:01.559Z,955.98
2016-10-13T04:03:01.543Z,955.99
2016-10-13T04:04:01.530Z,956
2016-10-13T04:05:01.521Z,955.96
2016-10-13T04:06:01.510Z,955.99
2016-10-13T04:07:01.495Z,955.95
2016-10-13T04:08:01.482Z,955.98
2016-10-13T04:09:01.469Z,955.94
2016-10-13T04:10:01.460Z,955.96
2016-10-13T04:11:01.443Z,955.96
2016-10-13T04:12:01.428Z,955.94
2016-10-13T04:13:01.421Z,955.96
2016-10-13T04:14:01.404Z,955.99
2016-10-13T04:15:01.397Z,955.99
2016-10-13T04:16:01.381Z,956.01
2016-10-13T04:17:01.371Z,955.99
2016-10-13T04:18:01.355Z,956.01
2016-10-13T04:19:01.343Z,956.03
2016-10-13T04:20:01.329Z,956.02
2016-10-13T04:21:01.316Z,956.04
2016-10-13T04:22:01.314Z,956.02
2016-10-13T04:23:01.293Z,956
2016-10-13T04:24:01.283Z,956.01
2016-10-13T04:25:01.267Z,956.01
2016-10-13T04:26:01.306Z,956.01
2016-10-13T04:27:01.243Z,956.04
2016-10-13T04:28:01.247Z,956.01
2016-10-13T04:29:01.217Z,956.02
2016-10-13T04:30:01.206Z,956.01
2016-10-13T04:31:01.198Z,956.01
2016-10-13T04:32:01.183Z,955.99
2016-10-13T04:33:01.169Z,956.02
2016-10-13T04:34:01.158Z,955.99
2016-10-13T04:35:01.142Z,955.98
2016-10-13T04:36:01.184Z,955.97
2016-10-13T04:37:01.117Z,955.96
2016-10-13T04:38:01.105Z,955.91
2016-10-13T04:39:01.096Z,955.96
2016-10-13T04:40:01.085Z,955.97
2016-10-13T04:41:01.068Z,955.98
2016-10-13T04:42:01.056Z,955.94
2016-10-13T04:43:01.046Z,955.94
2016-10-13T04:44:01.032Z,955.91
2016-10-13T04:45:01.031Z,955.94
2016-10-13T04:46:01.006Z,955.9
2016-10-13T04:47:01.006Z,955.91
2016-10-13T04:48:00.985Z,955.9
2016-10-13T04:49:00.970Z,955.91
2016-10-13T04:50:00.964Z,955.87
2016-10-13T04:51:00.944Z,955.88
2016-10-13T04:52:00.942Z,955.91
2016-10-13T04:53:00.922Z,955.93
2016-10-13T04:54:00.916Z,955.91
2016-10-13T04:55:00.903Z,955.9
2016-10-13T04:56:00.880Z,955.92
2016-10-13T04:57:00.894Z,955.92
2016-10-13T04:58:00.857Z,955.89
2016-10-13T04:59:00.846Z,955.93
2016-10-13T05:00:00.836Z,955.9
2016-10-13T05:01:00.824Z,955.91
2016-10-13T05:02:00.807Z,955.9
2016-10-13T05:03:00.800Z,955.89
2016-10-13T05:04:00.793Z,955.87
2016-10-13T05:05:00.770Z,955.88
2016-10-13T05:06:00.761Z,955.84
2016-10-13T05:07:00.746Z,955.82
2016-10-13T05:08:00.737Z,955.85
2016-10-13T05:09:00.725Z,955.83
2016-10-13T05:10:00.709Z,955.8
2016-10-13T05:11:00.697Z,955.81
2016-10-13T05:12:00.687Z,955.8
2016-10-13T05:13:00.673Z,955.79
2016-10-13T05:14:00.661Z,955.8
2016-10-13T05:15:00.650Z,955.76
2016-10-13T05:16:00.637Z,955.78
2016-10-13T05:17:00.623Z,955.72
2016-10-13T05:18:00.613Z,955.72
2016-10-13T05:19:00.598Z,955.77
2016-10-13T05:20:00.585Z,955.8
2016-10-13T05:21:00.575Z,955.77
2016-10-13T05:22:00.563Z,955.82
2016-10-13T05:23:00.551Z,955.83
2016-10-13T05:24:00.538Z,955.83
2016-10-13T05:25:00.528Z,955.84
2016-10-13T05:26:00.514Z,955.81
2016-10-13T05:27:00.502Z,955.83
2016-10-13T05:28:00.487Z,955.82
2016-10-13T05:29:00.478Z,955.81
2016-10-13T05:30:00.465Z,955.84
2016-10-13T05:31:00.451Z,955.81
2016-10-13T05:32:00.440Z,955.84
2016-10-13T05:33:00.425Z,955.81
2016-10-13T05:34:00.415Z,955.8
2016-10-13T05:35:00.401Z,955.77
2016-10-13T05:36:00.388Z,955.76
2016-10-13T05:37:00.377Z,955.78
2016-10-13T05:38:00.367Z,955.79
2016-10-13T05:39:00.355Z,955.8
2016-10-13T05:40:00.344Z,955.8
2016-10-13T05:41:00.327Z,955.75
2016-10-13T05:42:00.314Z,955.76
2016-10-13T05:43:00.305Z,955.76
2016-10-13T05:44:00.290Z,955.74
2016-10-13T05:45:00.280Z,955.71
2016-10-13T05:46:00.265Z,955.7
2016-10-13T05:47:00.251Z,955.71
2016-10-13T05:48:00.241Z,955.71
2016-10-13T05:49:00.227Z,955.66
2016-10-13T05:50:00.220Z,955.72
2016-10-13T05:51:00.207Z,955.71
2016-10-13T05:52:00.315Z,955.7
2016-10-13T05:53:00.179Z,955.7
2016-10-13T05:54:00.167Z,955.68
2016-10-13T05:55:00.151Z,955.66
2016-10-13T05:56:00.141Z,955.71
2016-10-13T05:57:00.129Z,955.67
2016-10-13T05:58:00.114Z,955.72
2016-10-13T05:59:00.103Z,955.71
2016-10-13T06:00:00.089Z,955.72
2016-10-13T06:01:00.083Z,955.73
2016-10-13T06:02:00.067Z,955.73
2016-10-13T06:03:00.051Z,955.69
2016-10-13T06:04:00.043Z,955.72
2016-10-13T06:05:00.033Z,955.65
2016-10-13T06:06:00.014Z,955.68
2016-10-13T06:07:00.012Z,955.7
2016-10-13T06:07:59.990Z,955.71
2016-10-13T06:08:59.981Z,955.7
2016-10-13T06:09:59.970Z,955.71
2016-10-13T06:10:59.953Z,955.72
2016-10-13T06:11:59.944Z,955.74
2016-10-13T06:12:59.929Z,955.75
2016-10-13T06:13:59.915Z,955.72
2016-10-13T06:14:59.904Z,955.72
2016-10-13T06:15:59.895Z,955.77
2016-10-13T06:16:59.880Z,955.74
2016-10-13T06:17:59.870Z,955.74
2016-10-13T06:18:59.853Z,955.78
2016-10-13T06:19:59.845Z,955.82
2016-10-13T06:20:59.831Z,955.78
2016-10-13T06:21:59.816Z,955.81
2016-10-13T06:22:59.807Z,955.79
2016-10-13T06:23:59.792Z,955.8
2016-10-13T06:24:59.778Z,955.81
2016-10-13T06:25:59.772Z,955.82
2016-10-13T06:26:59.757Z,955.83
2016-10-13T06:27:59.750Z,955.85
2016-10-13T06:28:59.736Z,955.8
2016-10-13T06:29:59.722Z,955.8
2016-10-13T06:30:59.715Z,955.78
2016-10-13T06:31:59.696Z,955.77
2016-10-13T06:32:59.686Z,955.74
2016-10-13T06:33:59.671Z,955.75
2016-10-13T06:34:59.656Z,955.79
2016-10-13T06:35:59.648Z,955.71
2016-10-13T06:36:59.632Z,955.7
2016-10-13T06:37:59.626Z,955.68
2016-10-13T06:38:59.612Z,955.69
2016-10-13T06:39:59.597Z,955.69
2016-10-13T06:40:59.583Z,955.73
2016-10-13T06:41:59.574Z,955.72
2016-10-13T06:42:59.562Z,955.71
2016-10-13T06:43:59.547Z,955.71
2016-10-13T06:44:59.536Z,955.71
2016-10-13T06:45:59.528Z,955.77
2016-10-13T06:46:59.512Z,955.77
2016-10-13T06:47:59.499Z,955.76
2016-10-13T06:48:59.492Z,955.7
2016-10-13T06:49:59.476Z,955.74
2016-10-13T06:50:59.467Z,955.71
2016-10-13T06:51:59.454Z,955.69
2016-10-13T06:52:59.439Z,955.71
2016-10-13T06:53:59.429Z,955.72
2016-10-13T06:54:59.419Z,955.73
2016-10-13T06:55:59.407Z,955.76
2016-10-13T06:56:59.394Z,955.8
2016-10-13T06:57:59.384Z,955.76
2016-10-13T06:58:59.371Z,955.78
2016-10-13T06:59:59.364Z,955.77
2016-10-13T07:00:59.349Z,955.79
2016-10-13T07:01:59.336Z,955.78
2016-10-13T07:02:59.326Z,955.81
2016-10-13T07:03:59.315Z,955.83
2016-10-13T07:04:59.302Z,955.79
2016-10-13T07:05:59.295Z,955.79
2016-10-13T07:06:59.280Z,955.8
2016-10-13T07:07:59.267Z,955.83
2016-10-13T07:08:59.438Z,955.81
2016-10-13T07:09:59.252Z,955.81
2016-10-13T07:10:59.235Z,955.81
2016-10-13T07:11:59.222Z,955.81
2016-10-13T07:12:59.214Z,955.81
2016-10-13T07:13:59.200Z,955.81
2016-10-13T07:14:59.206Z,955.8
2016-10-13T07:15:59.251Z,955.85
2016-10-13T07:16:59.242Z,955.84
2016-10-13T07:17:59.359Z,955.85
2016-10-13T07:18:59.228Z,955.83
2016-10-13T07:19:59.229Z,955.85
2016-10-13T07:20:59.215Z,955.84
2016-10-13T07:21:59.216Z,955.85
2016-10-13T07:22:59.195Z,955.88
2016-10-13T07:23:59.182Z,955.82
2016-10-13T07:24:59.076Z,955.85
2016-10-13T07:25:59.066Z,955.84
2016-10-13T07:26:59.053Z,955.84
2016-10-13T07:27:59.042Z,955.88
2016-10-13T07:28:59.030Z,955.87
2016-10-13T07:29:59.019Z,955.88
2016-10-13T07:30:59.007Z,955.93
2016-10-13T07:31:58.996Z,955.95
2016-10-13T07:32:58.989Z,955.96
2016-10-13T07:33:58.977Z,955.96
2016-10-13T07:34:58.968Z,955.93
2016-10-13T07:35:58.990Z,955.93
2016-10-13T07:36:58.943Z,955.92
2016-10-13T07:37:58.939Z,955.93
2016-10-13T07:38:58.930Z,955.93
2016-10-13T07:39:58.907Z,955.88
2016-10-13T07:40:58.894Z,955.91
2016-10-13T07:41:58.884Z,955.94
2016-10-13T07:42:58.878Z,956
2016-10-13T07:43:58.863Z,955.95
2016-10-13T07:44:58.852Z,955.94
2016-10-13T07:47:58.822Z,955.89
2016-10-13T07:48:58.818Z,955.88
2016-10-13T07:49:58.795Z,955.94
2016-10-13T07:50:58.785Z,955.97
2016-10-13T07:51:58.772Z,955.91
2016-10-13T07:52:58.763Z,955.94
2016-10-13T07:53:58.750Z,955.94
2016-10-13T07:54:58.736Z,955.94
2016-10-13T07:55:58.727Z,955.91
2016-10-13T07:56:58.713Z,955.95
2016-10-13T07:57:58.702Z,955.91
2016-10-13T07:58:58.690Z,955.93
2016-10-13T07:59:58.682Z,955.95
2016-10-13T08:00:58.668Z,955.88
2016-10-13T08:01:58.669Z,955.93
2016-10-13T08:02:58.647Z,955.89
2016-10-13T08:03:58.637Z,956
2016-10-13T08:04:58.631Z,955.95
2016-10-13T08:05:58.613Z,955.94
2016-10-13T08:06:58.606Z,955.99
2016-10-13T08:07:58.592Z,955.93
2016-10-13T08:08:58.580Z,955.95
2016-10-13T08:09:58.568Z,955.9
2016-10-13T08:10:58.559Z,955.9
2016-10-13T08:11:58.548Z,955.91
2016-10-13T08:12:58.544Z,955.9
2016-10-13T08:13:58.525Z,955.9
2016-10-13T08:14:58.515Z,955.92
2016-10-13T08:15:58.506Z,955.89
2016-10-13T08:16:58.493Z,955.9
2016-10-13T08:17:58.482Z,955.91
2016-10-13T08:18:58.473Z,955.93
2016-10-13T08:19:58.461Z,955.9
2016-10-13T08:20:58.450Z,955.92
2016-10-13T08:21:58.438Z,955.94
2016-10-13T08:22:58.430Z,955.9
2016-10-13T08:23:58.421Z,955.9
2016-10-13T08:24:58.414Z,955.9
2016-10-13T08:25:58.398Z,955.93
2016-10-13T08:26:58.386Z,955.93
2016-10-13T08:27:58.375Z,955.91
2016-10-13T08:28:58.371Z,955.93
2016-10-13T08:29:58.363Z,955.91
2016-10-13T08:30:58.344Z,955.93
2016-10-13T08:31:58.333Z,955.91
2016-10-13T08:32:58.325Z,955.88
2016-10-13T08:33:58.317Z,955.9
2016-10-13T08:34:58.306Z,955.9
2016-10-13T09:10:42.632Z,956.01
2016-10-13T09:11:42.619Z,956.05
2016-10-13T09:12:42.609Z,956.04
2016-10-13T09:13:42.600Z,956.05
2016-10-13T09:14:42.597Z,956.04
2016-10-13T09:15:42.575Z,956
2016-10-13T09:16:42.566Z,955.96
2016-10-13T09:17:42.555Z,955.98
2016-10-13T09:18:42.548Z,955.97
2016-10-13T09:19:42.543Z,955.94
2016-10-13T09:20:42.520Z,955.94
2016-10-13T09:21:42.509Z,955.99
2016-10-13T09:22:42.502Z,955.97
2016-10-13T09:23:42.493Z,955.97
2016-10-13T09:24:42.477Z,955.98
2016-10-13T09:25:42.473Z,955.95
2016-10-13T09:26:42.453Z,955.97
2016-10-13T09:27:42.443Z,955.95
2016-10-13T09:28:42.434Z,955.96
2016-10-13T09:29:42.424Z,955.96
2016-10-13T09:30:42.413Z,955.95
2016-10-13T09:31:42.406Z,955.95
2016-10-13T09:32:42.391Z,955.91
2016-10-13T09:33:42.379Z,955.85
2016-10-13T09:34:42.369Z,955.84
2016-10-13T09:35:42.359Z,955.82
2016-10-13T09:36:42.354Z,955.81
2016-10-13T09:37:42.339Z,955.82
2016-10-13T09:38:42.326Z,955.77
2016-10-13T09:39:42.316Z,955.8
2016-10-13T09:40:42.308Z,955.73
2016-10-13T09:41:42.295Z,955.73
2016-10-13T09:42:42.291Z,955.75
2016-10-13T09:43:42.274Z,955.78
2016-10-13T09:44:42.263Z,955.71
2016-10-13T09:45:42.250Z,955.72
2016-10-13T09:46:42.244Z,955.74
2016-10-13T09:47:42.230Z,955.67
2016-10-13T09:48:42.225Z,955.66
2016-10-13T09:49:42.213Z,955.65
2016-10-13T09:50:42.201Z,955.66
2016-10-13T09:51:42.193Z,955.65
2016-10-13T09:52:42.179Z,955.63
2016-10-13T09:53:42.167Z,955.62
2016-10-13T09:54:42.155Z,955.66
2016-10-13T09:55:42.144Z,955.61
2016-10-13T09:56:42.136Z,955.62
2016-10-13T09:57:42.215Z,955.64
2016-10-13T09:58:42.114Z,955.62
2016-10-13T09:59:42.106Z,955.63
2016-10-13T10:00:42.096Z,955.57
2016-10-13T10:01:42.087Z,955.61
2016-10-13T10:02:42.071Z,955.59
2016-10-13T10:03:42.062Z,955.55
2016-10-13T10:04:42.052Z,955.56
2016-10-13T10:05:42.044Z,955.57
2016-10-13T10:06:42.036Z,955.58
2016-10-13T10:07:42.021Z,955.51
2016-10-13T10:08:42.010Z,955.56
2016-10-13T10:09:42.004Z,955.55
2016-10-13T10:10:41.988Z,955.56
2016-10-13T10:11:42.219Z,955.61
2016-10-13T10:12:41.971Z,955.6
2016-10-13T10:13:41.959Z,955.58
2016-10-13T10:14:41.949Z,955.51
2016-10-13T10:15:41.941Z,955.58
2016-10-13T10:16:41.926Z,955.53
2016-10-13T10:17:41.917Z,955.58
2016-10-13T10:18:41.907Z,955.54
2016-10-13T10:19:41.894Z,955.49
2016-10-13T10:20:41.882Z,955.49
2016-10-13T10:21:41.874Z,955.53
2016-10-13T10:22:41.861Z,955.48
2016-10-13T10:23:41.852Z,955.48
2016-10-13T10:24:41.844Z,955.5
2016-10-13T10:25:41.830Z,955.5
2016-10-13T10:26:41.820Z,955.45
2016-10-13T10:27:41.808Z,955.42
2016-10-13T10:28:41.801Z,955.43
2016-10-13T10:29:41.789Z,955.46
2016-10-13T10:30:41.778Z,955.39
2016-10-13T10:31:41.768Z,955.44
2016-10-13T10:32:41.756Z,955.37
2016-10-13T10:33:41.747Z,955.38
2016-10-13T10:34:41.740Z,955.37
2016-10-13T10:35:41.728Z,955.36
2016-10-13T10:36:41.718Z,955.32
2016-10-13T10:37:41.709Z,955.34
2016-10-13T10:38:41.694Z,955.33
2016-10-13T10:39:41.683Z,955.32
2016-10-13T10:40:41.678Z,955.31
2016-10-13T10:41:41.665Z,955.27
2016-10-13T10:42:41.652Z,955.28
2016-10-13T10:43:41.644Z,955.26
2016-10-13T10:44:41.637Z,955.27
2016-10-13T10:45:41.624Z,955.29
2016-10-13T10:46:41.613Z,955.3
2016-10-13T10:47:41.606Z,955.3
2016-10-13T10:48:41.591Z,955.35
2016-10-13T10:49:41.586Z,955.34
2016-10-13T10:50:41.572Z,955.28
2016-10-13T10:51:41.561Z,955.27
2016-10-13T10:52:41.555Z,955.27
2016-10-13T10:53:41.543Z,955.28
2016-10-13T10:54:41.530Z,955.26
2016-10-13T10:55:41.521Z,955.26
2016-10-13T10:56:41.523Z,955.28
2016-10-13T10:57:41.501Z,955.27
2016-10-13T10:58:41.496Z,955.26
2016-10-13T10:59:41.488Z,955.26
2016-10-13T11:00:41.472Z,955.25
2016-10-13T11:01:41.461Z,955.28
2016-10-13T11:02:41.455Z,955.22
2016-10-13T11:03:41.446Z,955.21
2016-10-13T11:04:41.436Z,955.21
2016-10-13T11:05:41.425Z,955.18
2016-10-13T11:06:41.416Z,955.15
2016-10-13T11:07:41.404Z,955.17
2016-10-13T11:08:41.397Z,955.14
2016-10-13T11:09:41.388Z,955.19
2016-10-13T11:10:41.382Z,955.13
2016-10-13T11:11:41.367Z,955.13
2016-10-13T11:12:41.360Z,955.1
2016-10-13T11:13:41.347Z,955.14
2016-10-13T11:14:41.338Z,955.12
2016-10-13T11:15:41.331Z,955.12
2016-10-13T11:16:41.320Z,955.14
2016-10-13T11:17:41.308Z,955.14
2016-10-13T11:18:41.299Z,955.11
2016-10-13T11:19:41.290Z,955.12
2016-10-13T11:20:41.279Z,955.13
2016-10-13T11:21:41.270Z,955.1
2016-10-13T11:22:41.267Z,955.06
2016-10-13T11:23:41.252Z,955.06
2016-10-13T11:24:41.245Z,955.11
2016-10-13T11:25:41.234Z,955.09
2016-10-13T11:26:41.227Z,955.1
2016-10-13T11:27:41.216Z,955.07
2016-10-13T11:28:41.206Z,955.1
2016-10-13T11:29:41.198Z,955.06
2016-10-13T11:30:41.193Z,955.06
2016-10-13T11:31:41.184Z,955.03
2016-10-13T11:32:41.169Z,955.01
2016-10-13T11:33:41.161Z,955.02
2016-10-13T11:34:41.152Z,955.01
2016-10-13T11:35:41.150Z,954.99
2016-10-13T11:36:41.133Z,954.97
2016-10-13T11:37:41.135Z,954.97
2016-10-13T11:38:41.116Z,955
2016-10-13T11:39:41.112Z,954.99
2016-10-13T11:40:41.101Z,954.99
2016-10-13T11:41:41.090Z,954.92
2016-10-13T11:42:41.080Z,954.93
2016-10-13T11:43:41.072Z,954.92
2016-10-13T11:44:41.063Z,954.9
2016-10-13T11:45:41.055Z,954.87
2016-10-13T11:46:41.046Z,954.83
2016-10-13T11:47:41.035Z,954.88
2016-10-13T11:48:41.027Z,954.85
2016-10-13T11:49:41.017Z,954.86
2016-10-13T11:50:41.008Z,954.84
2016-10-13T11:51:40.999Z,954.81
2016-10-13T11:52:40.992Z,954.81
2016-10-13T11:53:40.983Z,954.81
2016-10-13T11:54:40.979Z,954.81
2016-10-13T11:55:40.962Z,954.78
2016-10-13T11:56:40.960Z,954.79
2016-10-13T11:57:40.945Z,954.76
2016-10-13T11:58:40.937Z,954.74
2016-10-13T11:59:40.927Z,954.72
2016-10-13T12:00:40.922Z,954.76
2016-10-13T12:01:40.908Z,954.73
2016-10-13T12:02:40.898Z,954.69
2016-10-13T12:03:40.891Z,954.67
2016-10-13T12:04:40.881Z,954.67
2016-10-13T12:05:40.873Z,954.65
2016-10-13T12:06:40.868Z,954.65
2016-10-13T12:07:40.859Z,954.68
2016-10-13T12:08:40.844Z,954.66
2016-10-13T12:09:40.843Z,954.66
2016-10-13T12:10:40.826Z,954.67
2016-10-13T12:11:40.818Z,954.59
2016-10-13T12:12:40.813Z,954.61
2016-10-13T12:13:40.798Z,954.59
2016-10-13T12:14:40.789Z,954.58
2016-10-13T12:15:40.784Z,954.63
2016-10-13T12:16:40.773Z,954.64
2016-10-13T12:17:40.766Z,954.61
2016-10-13T12:18:40.752Z,954.62
2016-10-13T12:19:40.745Z,954.64
2016-10-13T12:20:40.732Z,954.55
2016-10-13T12:21:40.724Z,954.59
2016-10-13T12:22:40.721Z,954.56
2016-10-13T12:23:40.704Z,954.57
2016-10-13T12:24:40.694Z,954.57
2016-10-13T12:25:40.688Z,954.52
2016-10-13T12:26:40.685Z,954.51
2016-10-13T12:27:40.667Z,954.51
2016-10-13T12:28:40.663Z,954.5
2016-10-13T12:29:40.650Z,954.47
2016-10-13T12:30:40.640Z,954.45
2016-10-13T12:31:40.630Z,954.47
2016-10-13T12:32:40.619Z,954.43
2016-10-13T12:33:40.609Z,954.4
2016-10-13T12:34:40.604Z,954.42
2016-10-13T12:35:40.595Z,954.45
2016-10-13T12:36:40.583Z,954.43
2016-10-13T12:37:40.577Z,954.4
2016-10-13T12:38:40.570Z,954.45
2016-10-13T12:39:40.552Z,954.45
2016-10-13T12:40:40.543Z,954.44
2016-10-13T12:41:40.533Z,954.47
2016-10-13T12:42:40.524Z,954.48
2016-10-13T12:43:40.513Z,954.5
2016-10-13T12:44:40.506Z,954.5
2016-10-13T12:45:40.494Z,954.5
2016-10-13T12:46:40.483Z,954.5
2016-10-13T12:47:40.475Z,954.56
2016-10-13T12:48:40.464Z,954.53
2016-10-13T12:49:40.460Z,954.58
2016-10-13T12:50:40.452Z,954.6
2016-10-13T12:51:40.433Z,954.59
2016-10-13T12:52:40.428Z,954.59
2016-10-13T12:53:40.418Z,954.65
2016-10-13T12:54:40.403Z,954.6
2016-10-13T12:55:40.399Z,954.61
2016-10-13T12:56:40.399Z,954.61
2016-10-13T12:57:40.374Z,954.59
2016-10-13T12:58:40.394Z,954.59
2016-10-13T12:59:40.355Z,954.63
2016-10-13T13:00:40.344Z,954.63
2016-10-13T13:01:40.333Z,954.64
2016-10-13T13:02:40.327Z,954.62
2016-10-13T13:03:40.313Z,954.64
2016-10-13T13:04:40.302Z,954.61
2016-10-13T13:05:40.294Z,954.56
2016-10-13T13:06:40.305Z,954.59
2016-10-13T13:07:40.279Z,954.59